Schoeneck, Pennsylvania
Current Conditions -  °F | °C
As of 4:53 AM on Saturday 22 Nov 2014 (Local Time) from KLNS Reporting Station
Clear Clear  
Wind Chill: 18°   Ceiling: Unl
Heat Index: 18°   Visibility: 10mi
Dew Point: 11°   Wind: 0mph
Humidity: 74%   Direction: NA
Pressure: 30.49"   Gusts: NA
Location:  40.2484°N, 76.2239°W
Report Text: KLNS 220953Z AUTO 00000KT 10SM CLR M08/M12 A3049 RMK AO2 SLP332 T10781117
Loading
Personal Weather Stations






























Interactive Weather Map New forecast layout! Learn more

10-Day Weather Forecast

Advertisements
Track Severe Weather on mobile